Time;durP1;ratioP1;P1;durP2;ratioP2;P2;SDS_P1;SDS_P2;PMS_P1;PMS_P2;Temp;Humidity;BMP_temperature;BMP_pressure;BME280_temperature;BME280_humidity;BME280_pressure;Samples;Min_cycle;Max_cycle;Signal;HPM_P1;HPM_P2
2023/12/24 00:00:22;;;;;;;;;;;7.70;99.90;;;;;;20889814;28;19948;-78
2023/12/24 00:10:23;;;;;;;;;;;7.70;99.90;;;;;;20858762;28;19924;-77
2023/12/24 00:20:23;;;;;;;;;;;7.70;99.90;;;;;;20881163;28;20021;-77
2023/12/24 00:30:26;;;;;;;;;;;7.70;99.90;;;;;;20863461;28;20278;-77
2023/12/24 00:40:27;;;;;;;;;;;7.60;99.90;;;;;;20847337;28;19912;-77
2023/12/24 00:50:28;;;;;;;;;;;7.60;99.90;;;;;;20839538;28;19955;-77
2023/12/24 01:00:28;;;;;;;;;;;7.50;99.90;;;;;;20840252;28;19913;-77
2023/12/24 01:10:29;;;;;;;;;;;7.50;99.90;;;;;;20847657;28;19940;-76
2023/12/24 01:20:30;;;;;;;;;;;7.60;99.90;;;;;;20845454;28;19913;-77
2023/12/24 01:30:31;;;;;;;;;;;7.50;99.90;;;;;;20839346;28;19946;-77
2023/12/24 01:40:31;;;;;;;;;;;7.50;99.90;;;;;;20845286;28;20388;-77
2023/12/24 01:50:32;;;;;;;;;;;7.40;99.90;;;;;;20857312;28;19940;-77
2023/12/24 02:00:34;;;;;;;;;;;7.30;99.90;;;;;;20859444;28;19948;-76
2023/12/24 02:10:35;;;;;;;;;;;7.30;99.90;;;;;;20854107;28;20393;-77
2023/12/24 02:20:36;;;;;;;;;;;7.30;99.90;;;;;;20877256;28;19944;-75
2023/12/24 02:30:41;;;;;;;;;;;7.20;99.90;;;;;;20876187;28;19916;-77
2023/12/24 02:40:41;;;;;;;;;;;7.10;99.90;;;;;;20901123;28;20366;-77
2023/12/24 02:50:42;;;;;;;;;;;7.00;99.90;;;;;;20870982;28;20003;-77
2023/12/24 03:00:43;;;;;;;;;;;7.00;99.90;;;;;;20917373;28;19917;-77
2023/12/24 03:10:43;;;;;;;;;;;7.00;99.90;;;;;;20892871;28;19909;-77
2023/12/24 03:20:44;;;;;;;;;;;7.10;99.90;;;;;;20927495;28;20456;-77
2023/12/24 03:30:45;;;;;;;;;;;7.20;99.90;;;;;;20897005;28;19912;-76
2023/12/24 03:40:45;;;;;;;;;;;7.40;99.90;;;;;;20919237;28;19912;-77
2023/12/24 03:50:47;;;;;;;;;;;7.70;99.90;;;;;;20918000;28;19908;-77
2023/12/24 04:00:47;;;;;;;;;;;7.70;99.90;;;;;;20894189;28;19913;-78
2023/12/24 04:10:48;;;;;;;;;;;7.80;99.90;;;;;;20886363;28;19908;-77
2023/12/24 04:20:49;;;;;;;;;;;7.80;99.90;;;;;;20906302;28;19963;-77
2023/12/24 04:30:50;;;;;;;;;;;7.90;99.90;;;;;;20849716;28;19909;-77
2023/12/24 04:40:50;;;;;;;;;;;8.10;99.90;;;;;;20858690;28;19937;-78
2023/12/24 04:50:51;;;;;;;;;;;7.90;99.90;;;;;;20861187;28;19917;-76
2023/12/24 05:00:53;;;;;;;;;;;7.70;99.90;;;;;;20854442;28;19948;-77
2023/12/24 05:10:53;;;;;;;;;;;7.80;99.90;;;;;;20841920;28;19909;-77
2023/12/24 05:20:55;;;;;;;;;;;7.80;99.90;;;;;;20859275;28;19913;-77
2023/12/24 05:30:56;;;;;;;;;;;7.90;99.90;;;;;;20860461;28;19932;-77
2023/12/24 05:40:57;;;;;;;;;;;7.80;99.90;;;;;;20870145;28;19913;-78
2023/12/24 05:50:57;;;;;;;;;;;7.80;99.90;;;;;;20867789;28;20000;-76
2023/12/24 06:00:58;;;;;;;;;;;7.90;99.90;;;;;;20872193;28;19967;-77
2023/12/24 06:10:58;;;;;;;;;;;7.90;99.90;;;;;;20900064;28;19955;-77
2023/12/24 06:21:02;;;;;;;;;;;7.90;99.90;;;;;;20892063;28;20309;-78
2023/12/24 06:31:02;;;;;;;;;;;8.00;99.90;;;;;;20890524;28;19915;-78
2023/12/24 06:41:03;;;;;;;;;;;7.90;99.90;;;;;;20896056;28;20378;-77
2023/12/24 06:51:03;;;;;;;;;;;7.80;99.90;;;;;;20905304;28;20317;-78
2023/12/24 07:01:04;;;;;;;;;;;7.70;99.90;;;;;;20912064;28;19931;-78
2023/12/24 07:11:05;;;;;;;;;;;7.60;99.90;;;;;;20905619;28;19919;-77
2023/12/24 07:21:05;;;;;;;;;;;7.50;99.90;;;;;;20896782;28;19953;-78
2023/12/24 07:31:06;;;;;;;;;;;7.40;99.90;;;;;;20899596;28;19928;-77
2023/12/24 07:41:07;;;;;;;;;;;7.40;99.90;;;;;;20883788;28;19915;-76
2023/12/24 07:51:08;;;;;;;;;;;7.50;99.90;;;;;;20879015;28;19915;-77
2023/12/24 08:01:09;;;;;;;;;;;8.00;99.90;;;;;;20882033;28;20397;-76
2023/12/24 08:11:09;;;;;;;;;;;7.90;99.90;;;;;;20877257;28;19909;-77
2023/12/24 08:21:10;;;;;;;;;;;8.00;99.90;;;;;;20875638;28;19948;-77
2023/12/24 08:31:11;;;;;;;;;;;7.80;99.90;;;;;;20881476;28;20392;-76
2023/12/24 08:41:12;;;;;;;;;;;7.90;99.90;;;;;;20878223;28;20288;-77
2023/12/24 08:51:13;;;;;;;;;;;8.70;99.90;;;;;;20883388;28;20415;-77
2023/12/24 09:01:13;;;;;;;;;;;8.40;99.90;;;;;;20893108;28;19909;-77
2023/12/24 09:11:14;;;;;;;;;;;8.50;99.90;;;;;;20889780;28;19948;-78
2023/12/24 09:21:15;;;;;;;;;;;8.70;99.90;;;;;;20870374;28;19913;-78
2023/12/24 09:31:15;;;;;;;;;;;8.70;99.90;;;;;;20883852;28;19908;-77
2023/12/24 09:41:17;;;;;;;;;;;8.80;99.90;;;;;;20880876;28;19916;-79
2023/12/24 09:51:18;;;;;;;;;;;9.90;99.90;;;;;;20892877;28;20361;-77
2023/12/24 10:01:18;;;;;;;;;;;11.30;99.90;;;;;;20898036;28;20032;-77
2023/12/24 10:11:23;;;;;;;;;;;11.00;99.90;;;;;;20896605;28;19913;-76
2023/12/24 10:21:25;;;;;;;;;;;10.60;99.90;;;;;;20904759;28;19999;-77
2023/12/24 10:31:25;;;;;;;;;;;10.40;99.90;;;;;;20904467;28;19920;-77
2023/12/24 10:41:26;;;;;;;;;;;10.20;99.90;;;;;;20909092;28;19917;-77
2023/12/24 10:51:26;;;;;;;;;;;10.10;99.90;;;;;;20868775;28;20335;-78
2023/12/24 11:01:27;;;;;;;;;;;10.30;99.90;;;;;;20904652;28;20411;-77
2023/12/24 11:11:48;;;;;;;;;;;10.40;99.90;;;;;;20876878;28;20305;-77
2023/12/24 11:22:04;;;;;;;;;;;10.40;99.90;;;;;;20874694;28;20372;-77
2023/12/24 11:32:23;;;;;;;;;;;9.90;99.90;;;;;;20886168;28;20297;-77
2023/12/24 11:42:37;;;;;;;;;;;9.80;99.90;;;;;;20888496;28;20324;-76
2023/12/24 11:52:44;;;;;;;;;;;9.50;99.90;;;;;;20875452;28;19920;-77
2023/12/24 12:02:52;;;;;;;;;;;9.10;99.90;;;;;;20890029;28;19916;-76
2023/12/24 12:12:52;;;;;;;;;;;8.80;99.90;;;;;;20880515;28;20293;-76
2023/12/24 12:22:53;;;;;;;;;;;8.40;99.90;;;;;;20887977;28;19915;-77
2023/12/24 12:32:53;;;;;;;;;;;8.20;99.90;;;;;;20892059;28;19920;-77
2023/12/24 12:42:54;;;;;;;;;;;8.10;99.90;;;;;;20890770;28;19963;-79
2023/12/24 12:52:55;;;;;;;;;;;7.90;99.90;;;;;;20891420;28;19921;-77
2023/12/24 13:03:05;;;;;;;;;;;7.80;99.90;;;;;;21056698;23;19921;-77
2023/12/24 13:13:18;;;;;;;;;;;7.80;99.90;;;;;;20935427;28;19923;-76
2023/12/24 13:23:20;;;;;;;;;;;7.80;99.90;;;;;;20913570;28;19921;-78
2023/12/24 13:33:20;;;;;;;;;;;7.80;99.90;;;;;;20916740;28;19924;-77
2023/12/24 13:43:21;;;;;;;;;;;7.80;99.90;;;;;;20914487;28;19915;-77
2023/12/24 13:53:21;;;;;;;;;;;7.80;99.90;;;;;;20918241;28;19917;-76
2023/12/24 14:03:24;;;;;;;;;;;7.90;99.90;;;;;;20911479;28;20288;-78
2023/12/24 14:13:25;;;;;;;;;;;8.00;99.90;;;;;;20921506;28;19913;-78
2023/12/24 14:23:26;;;;;;;;;;;8.10;99.90;;;;;;20902326;28;19950;-78
2023/12/24 14:33:26;;;;;;;;;;;8.20;99.90;;;;;;20919301;28;19923;-78
2023/12/24 14:43:27;;;;;;;;;;;8.20;99.90;;;;;;20914242;28;19919;-80
2023/12/24 14:53:28;;;;;;;;;;;8.10;99.90;;;;;;20910446;28;19987;-79
2023/12/24 15:03:29;;;;;;;;;;;8.00;99.90;;;;;;20948027;28;19916;-80
2023/12/24 15:13:29;;;;;;;;;;;8.00;99.90;;;;;;20941616;28;19916;-79
2023/12/24 15:23:30;;;;;;;;;;;7.90;99.90;;;;;;20950377;28;19919;-79
2023/12/24 15:33:30;;;;;;;;;;;7.80;99.90;;;;;;20970825;28;19931;-80
2023/12/24 15:43:33;;;;;;;;;;;7.80;99.90;;;;;;20952895;28;20292;-80
2023/12/24 15:53:34;;;;;;;;;;;7.80;99.90;;;;;;20943112;28;19924;-79
2023/12/24 16:03:34;;;;;;;;;;;7.80;99.90;;;;;;20914892;28;19921;-79
2023/12/24 16:13:35;;;;;;;;;;;7.80;99.90;;;;;;20917593;28;19921;-79
2023/12/24 16:23:36;;;;;;;;;;;7.80;99.90;;;;;;20928809;28;19919;-80
2023/12/24 16:33:37;;;;;;;;;;;7.80;99.90;;;;;;20918813;28;19917;-79
2023/12/24 16:43:37;;;;;;;;;;;8.00;99.90;;;;;;20893726;28;19913;-80
2023/12/24 16:53:38;;;;;;;;;;;8.20;99.90;;;;;;20910131;28;19917;-79
2023/12/24 17:03:39;;;;;;;;;;;8.30;99.90;;;;;;20886020;28;1134774;-79
2023/12/24 17:13:40;;;;;;;;;;;8.30;99.90;;;;;;20925142;28;20399;-77
2023/12/24 17:23:40;;;;;;;;;;;8.30;99.90;;;;;;20923192;28;19931;-78
2023/12/24 17:33:45;;;;;;;;;;;8.40;99.90;;;;;;20895698;28;19980;-78
2023/12/24 17:43:46;;;;;;;;;;;8.40;99.90;;;;;;20912028;28;19909;-77
2023/12/24 17:53:47;;;;;;;;;;;8.40;99.90;;;;;;20919027;28;20620;-77
2023/12/24 18:03:47;;;;;;;;;;;8.40;99.90;;;;;;20915438;28;19920;-77
2023/12/24 18:13:48;;;;;;;;;;;8.30;99.90;;;;;;20903488;28;20290;-78
2023/12/24 18:23:49;;;;;;;;;;;8.30;99.90;;;;;;20892323;28;19931;-77
2023/12/24 18:33:49;;;;;;;;;;;8.30;99.90;;;;;;20896592;28;19913;-78
2023/12/24 18:43:50;;;;;;;;;;;8.40;99.90;;;;;;20917073;28;19924;-77
2023/12/24 18:53:51;;;;;;;;;;;8.50;99.90;;;;;;20911939;28;19980;-77
2023/12/24 19:03:52;;;;;;;;;;;8.50;99.90;;;;;;20928934;28;19952;-78
2023/12/24 19:13:53;;;;;;;;;;;8.60;99.90;;;;;;20935132;28;19912;-78
2023/12/24 19:23:53;;;;;;;;;;;8.60;99.90;;;;;;20916602;28;20459;-80
2023/12/24 19:33:54;;;;;;;;;;;8.70;99.90;;;;;;20936046;28;19924;-80
2023/12/24 19:43:55;;;;;;;;;;;8.90;99.90;;;;;;20921031;28;20007;-81
2023/12/24 19:53:55;;;;;;;;;;;8.80;99.90;;;;;;20935607;28;20389;-80
2023/12/24 20:03:56;;;;;;;;;;;8.70;99.90;;;;;;20928143;28;19912;-80
2023/12/24 20:13:56;;;;;;;;;;;8.70;99.90;;;;;;20924012;28;19923;-80
2023/12/24 20:23:57;;;;;;;;;;;8.50;99.90;;;;;;20920635;28;19909;-79
2023/12/24 20:33:58;;;;;;;;;;;8.50;99.90;;;;;;20948468;28;19922;-79
2023/12/24 20:43:58;;;;;;;;;;;8.60;99.90;;;;;;20945205;28;20430;-80
2023/12/24 20:53:59;;;;;;;;;;;8.40;99.90;;;;;;20918977;28;19913;-80
2023/12/24 21:04:00;;;;;;;;;;;8.20;99.90;;;;;;20906883;28;19917;-79
2023/12/24 21:14:01;;;;;;;;;;;8.20;99.90;;;;;;20928740;28;19912;-78
2023/12/24 21:24:01;;;;;;;;;;;8.30;99.90;;;;;;20962892;28;19921;-79
2023/12/24 21:34:02;;;;;;;;;;;8.40;99.90;;;;;;20946191;28;19924;-79
2023/12/24 21:44:03;;;;;;;;;;;8.30;99.90;;;;;;20952620;28;19924;-79
2023/12/24 21:54:03;;;;;;;;;;;8.20;99.90;;;;;;20936176;28;19976;-79
2023/12/24 22:04:04;;;;;;;;;;;8.10;99.90;;;;;;20936002;28;19912;-79
2023/12/24 22:14:05;;;;;;;;;;;8.10;99.90;;;;;;20957797;28;20012;-80
2023/12/24 22:24:06;;;;;;;;;;;8.10;99.90;;;;;;20921504;28;19908;-80
2023/12/24 22:34:06;;;;;;;;;;;8.20;99.90;;;;;;20945874;28;20402;-79
2023/12/24 22:44:07;;;;;;;;;;;8.30;99.90;;;;;;20957282;28;19936;-80
2023/12/24 22:54:08;;;;;;;;;;;8.20;99.90;;;;;;20953645;28;19917;-80
2023/12/24 23:04:08;;;;;;;;;;;8.10;99.90;;;;;;20901766;28;19912;-80
2023/12/24 23:14:09;;;;;;;;;;;8.20;99.90;;;;;;20940985;28;19916;-80
2023/12/24 23:24:09;;;;;;;;;;;8.60;99.90;;;;;;20944191;28;20529;-80
2023/12/24 23:34:10;;;;;;;;;;;8.80;99.90;;;;;;20924537;28;19912;-80
2023/12/24 23:44:11;;;;;;;;;;;8.60;99.90;;;;;;20907541;28;19913;-80
2023/12/24 23:54:11;;;;;;;;;;;8.50;99.90;;;;;;20915856;28;19921;-80
